Middelfart, Denmark
Current Conditions -  °F | °C
As of 2:50 PM on Friday 24 Oct 2014 (Local Time) from EKOD Reporting Station
Broken Clouds Broken Clouds  
Wind Chill: 52°   Ceiling: 7000
Heat Index: 52°   Visibility: 6mi
Dew Point: 48°   Wind: 15mph
Humidity: 88%   Direction: 190°S
Pressure: 30.03"   Gusts: NA
Location:  55.51°N, 9.73°E
Report Text: EKOD 241250Z 19013KT 9999 FEW011 SCT021 BKN070 11/09 Q1017
Loading
Personal Weather Stations






























Interactive Weather Map
Tropical Storm Tracking
New forecast layout! Learn more

10-Day Weather Forecast

Advertisements
Track Severe Weather on mobile